createdAt,value
2023-03-12T00:01:33.376Z,6.60
2023-03-12T00:04:04.384Z,4.72
2023-03-12T00:06:32.010Z,5.68
2023-03-12T00:09:01.858Z,5.32
2023-03-12T00:11:29.965Z,5.50
2023-03-12T00:14:00.144Z,5.13
2023-03-12T00:16:27.953Z,5.78
2023-03-12T00:18:55.779Z,4.57
2023-03-12T00:21:23.512Z,4.60
2023-03-12T00:23:52.031Z,4.68
2023-03-12T00:26:20.625Z,5.25
2023-03-12T00:28:49.220Z,5.07
2023-03-12T00:31:22.254Z,4.22
2023-03-12T00:33:50.238Z,4.85
2023-03-12T00:36:19.221Z,4.70
2023-03-12T00:38:46.610Z,4.68
2023-03-12T00:41:14.333Z,4.85
2023-03-12T00:43:41.692Z,4.32
2023-03-12T00:46:09.343Z,3.78
2023-03-12T00:48:36.742Z,4.28
2023-03-12T00:51:04.526Z,4.40
2023-03-12T00:53:31.960Z,4.22
2023-03-12T00:55:59.312Z,4.05
2023-03-12T00:58:26.298Z,4.25
2023-03-12T01:00:54.265Z,4.22
2023-03-12T01:03:21.619Z,4.50
2023-03-12T01:05:54.055Z,4.53
2023-03-12T01:08:21.955Z,4.22
2023-03-12T01:10:49.969Z,4.82
2023-03-12T01:13:17.518Z,5.10
2023-03-12T01:15:45.132Z,4.40
2023-03-12T01:18:12.576Z,5.38
2023-03-12T01:20:41.066Z,3.83
2023-03-12T01:23:08.962Z,3.72
2023-03-12T01:25:37.289Z,4.43
2023-03-12T01:28:05.090Z,4.70
2023-03-12T01:30:32.816Z,3.78
2023-03-12T01:33:00.263Z,4.32
2023-03-12T01:35:28.280Z,3.75
2023-03-12T01:37:56.156Z,3.88
2023-03-12T01:40:29.280Z,3.40
2023-03-12T01:42:58.109Z,3.72
2023-03-12T01:45:44.761Z,3.92
2023-03-12T01:48:12.179Z,3.38
2023-03-12T01:50:40.193Z,3.20
2023-03-12T01:53:07.544Z,3.67
2023-03-12T01:55:35.301Z,3.50
2023-03-12T01:58:03.029Z,4.40
2023-03-12T02:00:30.722Z,3.83
2023-03-12T02:03:00.855Z,3.35
2023-03-12T02:05:40.930Z,3.28
2023-03-12T02:08:08.304Z,3.70
2023-03-12T02:10:36.334Z,3.58
2023-03-12T02:13:03.886Z,3.00
2023-03-12T02:15:31.559Z,3.38
2023-03-12T02:17:58.990Z,2.75
2023-03-12T02:20:47.184Z,3.15
2023-03-12T02:23:17.743Z,3.45
2023-03-12T02:25:47.615Z,4.05
2023-03-12T02:28:16.347Z,4.28
2023-03-12T02:30:47.101Z,3.92
2023-03-12T02:33:17.494Z,2.92
2023-03-12T02:35:47.621Z,4.07
2023-03-12T02:38:33.717Z,3.03
2023-03-12T02:41:11.189Z,2.90
2023-03-12T02:43:38.690Z,3.30
2023-03-12T02:46:08.169Z,2.80
2023-03-12T02:48:35.817Z,2.38
2023-03-12T02:51:03.558Z,3.13
2023-03-12T02:53:31.045Z,2.40
2023-03-12T02:55:58.815Z,2.80
2023-03-12T02:58:26.276Z,2.60
2023-03-12T03:00:54.959Z,3.40
2023-03-12T03:03:22.419Z,2.67
2023-03-12T03:05:50.122Z,2.97
2023-03-12T03:08:17.493Z,2.80
2023-03-12T03:10:45.444Z,2.78
2023-03-12T03:13:12.966Z,2.25
2023-03-12T03:15:40.932Z,2.92
2023-03-12T03:18:08.319Z,2.85
2023-03-12T03:20:36.487Z,2.80
2023-03-12T03:23:04.568Z,3.20
2023-03-12T03:25:33.681Z,2.88
2023-03-12T03:28:01.237Z,2.45
2023-03-12T03:30:28.917Z,2.70
2023-03-12T03:32:56.394Z,2.45
2023-03-12T03:35:24.269Z,2.88
2023-03-12T03:37:51.736Z,2.05
2023-03-12T03:40:19.485Z,3.17
2023-03-12T03:42:46.571Z,2.08
2023-03-12T03:45:14.225Z,2.58
2023-03-12T03:47:41.638Z,2.88
2023-03-12T03:50:09.619Z,2.70
2023-03-12T03:52:37.034Z,2.28
2023-03-12T03:55:05.411Z,2.75
2023-03-12T03:57:32.950Z,2.13
2023-03-12T04:00:03.526Z,2.85
2023-03-12T04:02:31.311Z,2.63
2023-03-12T04:04:59.245Z,2.15
2023-03-12T04:07:27.052Z,2.55
2023-03-12T04:09:56.244Z,2.55
2023-03-12T04:12:25.976Z,3.15
2023-03-12T04:14:53.754Z,2.58
2023-03-12T04:17:21.156Z,2.75
2023-03-12T04:19:49.081Z,2.45
2023-03-12T04:22:16.463Z,2.70
2023-03-12T04:24:44.134Z,3.20
2023-03-12T04:27:11.547Z,2.50
2023-03-12T04:29:40.750Z,2.30
2023-03-12T04:32:08.684Z,2.33
2023-03-12T04:34:35.919Z,2.47
2023-03-12T04:37:03.314Z,2.67
2023-03-12T04:39:30.963Z,2.50
2023-03-12T04:41:58.033Z,2.78
2023-03-12T04:44:25.650Z,2.95
2023-03-12T04:46:53.189Z,2.42
2023-03-12T04:49:20.992Z,2.50
2023-03-12T04:51:48.338Z,2.25
2023-03-12T04:54:15.992Z,2.63
2023-03-12T04:56:43.389Z,2.47
2023-03-12T04:59:11.019Z,2.47
2023-03-12T05:01:38.697Z,1.85
2023-03-12T05:04:06.740Z,2.65
2023-03-12T05:06:34.599Z,2.70
2023-03-12T05:09:02.838Z,2.45
2023-03-12T05:11:30.375Z,2.70
2023-03-12T05:13:58.072Z,3.30
2023-03-12T05:16:25.539Z,2.80
2023-03-12T05:18:53.221Z,2.60
2023-03-12T05:21:22.054Z,2.88
2023-03-12T05:23:50.082Z,2.47
2023-03-12T05:26:17.552Z,2.70
2023-03-12T05:28:45.274Z,2.38
2023-03-12T05:31:13.240Z,2.58
2023-03-12T05:33:41.117Z,3.10
2023-03-12T05:36:09.031Z,2.22
2023-03-12T05:38:37.144Z,2.40
2023-03-12T05:41:04.755Z,2.50
2023-03-12T05:43:33.248Z,2.85
2023-03-12T05:46:02.092Z,2.58
2023-03-12T05:48:29.851Z,2.75
2023-03-12T05:50:57.681Z,2.88
2023-03-12T05:53:25.042Z,2.95
2023-03-12T05:55:52.520Z,2.55
2023-03-12T05:58:20.271Z,2.65
2023-03-12T06:00:47.694Z,2.42
2023-03-12T06:03:16.088Z,3.33
2023-03-12T06:05:45.004Z,2.67
2023-03-12T06:08:12.775Z,3.10
2023-03-12T06:10:40.266Z,3.08
2023-03-12T06:13:09.201Z,2.35
2023-03-12T06:15:36.327Z,2.63
2023-03-12T06:18:03.939Z,3.05
2023-03-12T06:20:31.502Z,3.35
2023-03-12T06:22:59.616Z,3.08
2023-03-12T06:25:27.026Z,2.88
2023-03-12T06:27:55.188Z,3.45
2023-03-12T06:30:22.926Z,3.67
2023-03-12T06:32:50.676Z,4.13
2023-03-12T06:35:18.315Z,4.22
2023-03-12T06:37:46.121Z,3.95
2023-03-12T06:40:13.966Z,4.80
2023-03-12T06:42:41.630Z,5.35
2023-03-12T06:45:09.423Z,4.63
2023-03-12T06:47:37.409Z,4.88
2023-03-12T06:50:04.972Z,3.60
2023-03-12T06:52:32.983Z,3.70
2023-03-12T06:55:00.350Z,3.47
2023-03-12T06:57:28.269Z,3.08
2023-03-12T06:59:55.811Z,2.70
2023-03-12T07:02:23.850Z,2.85
2023-03-12T07:04:51.405Z,2.75
2023-03-12T07:07:20.151Z,2.28
2023-03-12T07:09:49.166Z,2.63
2023-03-12T07:12:17.539Z,2.35
2023-03-12T07:14:45.104Z,1.95
2023-03-12T07:17:12.958Z,1.80
2023-03-12T07:19:40.720Z,1.50
2023-03-12T07:22:08.739Z,1.98
2023-03-12T07:24:36.283Z,1.35
2023-03-12T07:27:04.565Z,1.33
2023-03-12T07:29:32.137Z,1.95
2023-03-12T07:32:00.108Z,1.90
2023-03-12T07:34:27.865Z,2.00
2023-03-12T07:36:56.488Z,1.63
2023-03-12T07:39:24.096Z,1.23
2023-03-12T07:41:51.585Z,1.35
2023-03-12T07:44:19.261Z,1.10
2023-03-12T07:46:47.838Z,2.40
2023-03-12T07:49:15.459Z,1.20
2023-03-12T07:51:43.381Z,1.35
2023-03-12T07:54:10.617Z,1.02
2023-03-12T07:56:38.704Z,2.72
2023-03-12T07:59:06.791Z,1.50
2023-03-12T08:01:35.346Z,1.00
2023-03-12T08:04:03.225Z,2.30
2023-03-12T08:06:30.731Z,1.23
2023-03-12T08:08:58.247Z,1.20
2023-03-12T08:11:26.172Z,1.50
2023-03-12T08:13:53.720Z,1.30
2023-03-12T08:16:21.618Z,1.17
2023-03-12T08:18:49.255Z,1.23
2023-03-12T08:21:17.410Z,1.73
2023-03-12T08:23:45.095Z,1.00
2023-03-12T08:26:13.051Z,1.08
2023-03-12T08:28:40.718Z,1.73
2023-03-12T08:31:09.554Z,0.93
2023-03-12T08:33:41.172Z,1.25
2023-03-12T08:36:08.881Z,1.00
2023-03-12T08:38:36.274Z,1.10
2023-03-12T08:41:04.142Z,0.95
2023-03-12T08:43:31.732Z,1.35
2023-03-12T08:46:01.710Z,1.23
2023-03-12T08:48:30.744Z,1.65
2023-03-12T08:50:59.569Z,1.52
2023-03-12T08:53:27.545Z,0.82
2023-03-12T08:55:55.724Z,0.98
2023-03-12T08:58:24.931Z,0.95
2023-03-12T09:00:53.287Z,0.52
2023-03-12T09:03:21.647Z,1.00
2023-03-12T09:05:49.831Z,0.65
2023-03-12T09:08:18.043Z,0.98
2023-03-12T09:10:52.599Z,1.05
2023-03-12T09:13:19.586Z,0.50
2023-03-12T09:15:47.500Z,0.52
2023-03-12T09:18:15.406Z,0.93
2023-03-12T09:20:43.764Z,0.60
2023-03-12T09:23:11.328Z,1.17
2023-03-12T09:25:38.650Z,2.05
2023-03-12T09:28:06.092Z,3.95
2023-03-12T09:30:34.041Z,0.77
2023-03-12T09:33:01.599Z,1.33
2023-03-12T09:35:31.588Z,1.10
2023-03-12T09:37:59.337Z,1.00
2023-03-12T09:40:29.282Z,1.08
2023-03-12T09:43:00.305Z,1.00
2023-03-12T09:45:31.242Z,0.93
2023-03-12T09:48:02.687Z,2.00
2023-03-12T09:50:33.596Z,1.07
2023-03-12T09:53:05.852Z,1.38
2023-03-12T09:55:37.747Z,0.95
2023-03-12T09:58:05.489Z,1.50
2023-03-12T10:00:35.879Z,0.90
2023-03-12T10:03:03.488Z,1.45
2023-03-12T10:05:44.371Z,1.20
2023-03-12T10:08:24.008Z,0.82
2023-03-12T10:11:09.102Z,1.70
2023-03-12T10:13:48.760Z,1.90
2023-03-12T10:16:38.076Z,0.63
2023-03-12T10:19:05.503Z,0.77
2023-03-12T10:21:48.260Z,1.00
2023-03-12T10:24:15.601Z,1.35
2023-03-12T10:27:02.060Z,1.35
2023-03-12T10:29:30.718Z,0.88
2023-03-12T10:32:04.983Z,0.80
2023-03-12T10:34:37.653Z,0.60
2023-03-12T10:37:10.478Z,0.90
2023-03-12T10:39:37.998Z,1.27
2023-03-12T10:42:13.401Z,1.00
2023-03-12T10:44:41.053Z,1.08
2023-03-12T10:47:19.553Z,0.73
2023-03-12T10:49:50.567Z,1.00
2023-03-12T10:52:21.722Z,0.73
2023-03-12T10:54:51.496Z,0.75
2023-03-12T10:57:19.650Z,1.52
2023-03-12T10:59:48.425Z,1.83
2023-03-12T11:02:25.591Z,1.48
2023-03-12T11:04:53.774Z,1.30
2023-03-12T11:07:36.597Z,1.88
2023-03-12T11:10:06.793Z,0.90
2023-03-12T11:12:36.266Z,1.10
2023-03-12T11:15:19.212Z,1.77
2023-03-12T11:17:47.392Z,1.02
2023-03-12T11:20:23.786Z,0.90
2023-03-12T11:22:51.671Z,0.90
2023-03-12T11:25:29.629Z,1.25
2023-03-12T11:28:00.057Z,0.70
2023-03-12T11:30:33.103Z,1.67
2023-03-12T11:33:02.294Z,1.33
2023-03-12T11:35:39.886Z,0.80
2023-03-12T11:38:30.601Z,0.93
2023-03-12T11:41:03.901Z,0.80
2023-03-12T11:43:43.574Z,0.98
2023-03-12T11:46:20.757Z,1.23
2023-03-12T11:48:48.873Z,1.30
2023-03-12T11:51:34.811Z,1.80
2023-03-12T11:54:08.899Z,1.10
2023-03-12T11:56:56.838Z,1.13
2023-03-12T11:59:25.473Z,1.20
2023-03-12T12:01:58.727Z,1.50
2023-03-12T12:04:29.300Z,1.38
2023-03-12T12:07:03.121Z,1.55
2023-03-12T12:09:41.205Z,1.30
2023-03-12T12:12:08.601Z,1.10
2023-03-12T12:14:39.852Z,1.15
2023-03-12T12:17:16.714Z,1.50
2023-03-12T12:19:53.574Z,1.30
2023-03-12T12:23:02.265Z,0.95
2023-03-12T12:25:29.978Z,1.45
2023-03-12T12:28:03.295Z,1.25
2023-03-12T12:30:36.851Z,0.82
2023-03-12T12:33:09.896Z,0.93
2023-03-12T12:35:38.827Z,1.25
2023-03-12T12:38:19.198Z,0.98
2023-03-12T12:40:52.250Z,1.38
2023-03-12T12:43:38.247Z,1.35
2023-03-12T12:46:11.725Z,0.95
2023-03-12T12:48:40.757Z,1.17
2023-03-12T12:51:09.227Z,1.30
2023-03-12T12:53:55.457Z,1.30
2023-03-12T12:56:31.205Z,1.20
2023-03-12T12:59:07.822Z,1.52
2023-03-12T13:01:36.793Z,0.90
2023-03-12T13:04:11.619Z,0.95
2023-03-12T13:06:58.361Z,1.27
2023-03-12T13:09:44.116Z,0.65
2023-03-12T13:12:14.858Z,0.70
2023-03-12T13:14:43.978Z,1.35
2023-03-12T13:17:30.206Z,1.30
2023-03-12T13:20:10.895Z,0.60
2023-03-12T13:22:38.606Z,1.10
2023-03-12T13:25:09.185Z,1.33
2023-03-12T13:27:38.545Z,1.60
2023-03-12T13:30:24.740Z,1.20
2023-03-12T13:33:06.037Z,1.08
2023-03-12T13:35:37.631Z,1.38
2023-03-12T13:38:07.014Z,2.07
2023-03-12T13:40:35.427Z,4.07
2023-03-12T13:43:13.703Z,2.78
2023-03-12T13:45:42.604Z,1.38
2023-03-12T13:48:18.979Z,1.15
2023-03-12T13:50:52.098Z,0.60
2023-03-12T13:53:28.470Z,0.88
2023-03-12T13:56:17.884Z,2.15
2023-03-12T13:58:55.009Z,3.72
2023-03-12T14:01:24.787Z,2.55
2023-03-12T14:04:04.721Z,1.17
2023-03-12T14:06:36.953Z,1.92
2023-03-12T14:09:10.808Z,2.15
2023-03-12T14:11:41.247Z,1.40
2023-03-12T14:14:27.632Z,1.30
2023-03-12T14:16:57.901Z,0.80
2023-03-12T14:19:33.579Z,0.90
2023-03-12T14:22:03.039Z,1.02
2023-03-12T14:24:35.511Z,0.85
2023-03-12T14:27:05.465Z,1.05
2023-03-12T14:29:43.448Z,1.10
2023-03-12T14:32:15.566Z,1.67
2023-03-12T14:34:47.428Z,1.08
2023-03-12T14:37:20.897Z,1.42
2023-03-12T14:39:52.026Z,1.10
2023-03-12T14:42:27.430Z,2.20
2023-03-12T14:45:12.280Z,3.25
2023-03-12T14:47:43.776Z,2.60
2023-03-12T14:50:17.811Z,1.55
2023-03-12T14:55:18.406Z,1.80
2023-03-12T14:57:45.919Z,1.80
2023-03-12T15:00:23.287Z,1.92
2023-03-12T15:02:52.339Z,1.83
2023-03-12T15:05:21.339Z,2.15
2023-03-12T15:07:49.839Z,2.80
2023-03-12T15:10:25.017Z,2.72
2023-03-12T15:12:56.216Z,1.92
2023-03-12T15:15:36.126Z,1.35
2023-03-12T15:18:11.488Z,1.35
2023-03-12T15:20:39.695Z,1.23
2023-03-12T15:23:08.255Z,2.05
2023-03-12T15:25:36.324Z,2.15
2023-03-12T15:28:15.827Z,2.38
2023-03-12T15:30:44.002Z,1.92
2023-03-12T15:33:13.830Z,4.97
2023-03-12T15:35:58.943Z,3.53
2023-03-12T15:38:26.706Z,2.25
2023-03-12T15:40:59.072Z,2.30
2023-03-12T15:43:27.945Z,5.43
2023-03-12T15:46:03.821Z,3.58
2023-03-12T15:48:31.329Z,2.72
2023-03-12T15:50:59.534Z,2.53
2023-03-12T15:53:31.148Z,2.35
2023-03-12T15:56:03.330Z,3.55
2023-03-12T15:58:35.264Z,3.45
2023-03-12T16:01:16.821Z,2.50
2023-03-12T16:03:48.026Z,2.53
2023-03-12T16:06:19.682Z,2.03
2023-03-12T16:08:58.049Z,2.22
2023-03-12T16:11:27.427Z,1.85
2023-03-12T16:14:05.299Z,2.05
2023-03-12T16:16:33.365Z,2.17
2023-03-12T16:19:00.904Z,1.80
2023-03-12T16:21:28.707Z,2.33
2023-03-12T16:23:55.735Z,2.88
2023-03-12T16:26:23.773Z,3.45
2023-03-12T16:28:51.200Z,3.00
2023-03-12T16:31:19.433Z,2.17
2023-03-12T16:33:47.108Z,4.38
2023-03-12T16:36:16.654Z,3.22
2023-03-12T16:38:44.905Z,2.67
2023-03-12T16:41:18.407Z,4.13
2023-03-12T16:43:50.111Z,6.25
2023-03-12T16:46:19.857Z,7.65
2023-03-12T16:48:50.860Z,9.95
2023-03-12T16:51:18.530Z,14.07
2023-03-12T16:53:47.599Z,11.90
2023-03-12T16:56:21.861Z,9.52
2023-03-12T16:58:52.884Z,7.47
2023-03-12T17:01:22.630Z,8.05
2023-03-12T17:03:50.459Z,4.00
2023-03-12T17:06:22.633Z,3.28
2023-03-12T17:08:50.275Z,3.50
2023-03-12T17:11:25.572Z,3.00
2023-03-12T17:13:55.449Z,2.03
2023-03-12T17:16:23.977Z,1.88
2023-03-12T17:18:51.611Z,2.67
2023-03-12T17:21:20.157Z,3.30
2023-03-12T17:23:49.985Z,2.88
2023-03-12T17:26:18.381Z,6.70
2023-03-12T17:28:46.082Z,7.72
2023-03-12T17:31:13.831Z,4.75
2023-03-12T17:33:43.024Z,4.80
2023-03-12T17:36:10.955Z,4.40
2023-03-12T17:38:38.424Z,4.13
2023-03-12T17:41:23.503Z,4.35
2023-03-12T17:43:53.263Z,3.75
2023-03-12T17:46:22.176Z,2.53
2023-03-12T17:48:49.233Z,3.20
2023-03-12T17:51:16.985Z,3.40
2023-03-12T17:53:44.379Z,2.72
2023-03-12T17:56:12.790Z,2.35
2023-03-12T17:58:41.323Z,3.05
2023-03-12T18:01:09.072Z,2.40
2023-03-12T18:03:36.307Z,3.38
2023-03-12T18:06:04.289Z,3.92
2023-03-12T18:08:31.738Z,2.20
2023-03-12T18:11:01.649Z,5.53
2023-03-12T18:13:29.915Z,7.93
2023-03-12T18:16:00.298Z,13.48
2023-03-12T18:18:28.263Z,56.92
2023-03-12T18:20:56.142Z,78.97
2023-03-12T18:23:25.275Z,48.25
2023-03-12T18:25:52.933Z,23.42
2023-03-12T18:28:21.053Z,14.60
2023-03-12T18:30:48.889Z,10.00
2023-03-12T18:33:17.021Z,6.22
2023-03-12T18:35:44.885Z,8.48
2023-03-12T18:38:12.677Z,9.20
2023-03-12T18:40:40.564Z,6.93
2023-03-12T18:43:08.247Z,5.28
2023-03-12T18:45:36.172Z,3.83
2023-03-12T18:48:04.993Z,3.95
2023-03-12T18:50:33.243Z,3.58
2023-03-12T18:53:00.313Z,2.92
2023-03-12T18:55:28.288Z,2.70
2023-03-12T18:57:56.283Z,3.53
2023-03-12T19:00:24.286Z,2.67
2023-03-12T19:02:51.462Z,3.00
2023-03-12T19:05:19.548Z,3.47
2023-03-12T19:07:46.895Z,2.95
2023-03-12T19:10:15.173Z,2.50
2023-03-12T19:12:52.161Z,2.95
2023-03-12T19:15:21.722Z,3.28
2023-03-12T19:17:48.867Z,4.03
2023-03-12T19:20:16.824Z,3.33
2023-03-12T19:22:44.260Z,3.20
2023-03-12T19:25:11.974Z,3.65
2023-03-12T19:27:39.367Z,3.13
2023-03-12T19:30:08.916Z,3.47
2023-03-12T19:32:43.191Z,2.97
2023-03-12T19:35:12.950Z,2.55
2023-03-12T19:37:40.313Z,3.85
2023-03-12T19:40:08.271Z,3.13
2023-03-12T19:42:35.809Z,3.55
2023-03-12T19:45:03.471Z,3.15
2023-03-12T19:47:33.157Z,3.95
2023-03-12T19:50:00.897Z,3.67
2023-03-12T19:52:28.436Z,4.18
2023-03-12T19:55:04.172Z,4.63
2023-03-12T19:57:32.535Z,4.78
2023-03-12T20:00:00.217Z,4.95
2023-03-12T20:02:27.836Z,4.53
2023-03-12T20:04:56.155Z,4.95
2023-03-12T20:07:23.600Z,4.13
2023-03-12T20:09:51.848Z,4.90
2023-03-12T20:12:19.289Z,4.75
2023-03-12T20:14:47.693Z,5.72
2023-03-12T20:17:15.779Z,5.43
2023-03-12T20:19:43.589Z,6.20
2023-03-12T20:22:11.029Z,5.78
2023-03-12T20:24:38.553Z,5.03
2023-03-12T20:27:05.985Z,5.47
2023-03-12T20:29:33.967Z,4.72
2023-03-12T20:32:01.088Z,5.22
2023-03-12T20:34:29.125Z,6.15
2023-03-12T20:36:56.470Z,5.53
2023-03-12T20:39:24.106Z,5.85
2023-03-12T20:41:51.117Z,5.30
2023-03-12T20:44:19.046Z,5.20
2023-03-12T20:46:47.658Z,5.32
2023-03-12T20:49:15.058Z,5.65
2023-03-12T20:51:43.033Z,5.25
2023-03-12T20:54:11.211Z,6.32
2023-03-12T20:56:43.408Z,6.82
2023-03-12T20:59:11.741Z,7.97
2023-03-12T21:01:38.740Z,7.85
2023-03-12T21:04:06.607Z,7.45
2023-03-12T21:06:33.985Z,7.57
2023-03-12T21:09:01.698Z,7.45
2023-03-12T21:11:29.170Z,7.05
2023-03-12T21:13:57.076Z,6.05
2023-03-12T21:16:24.744Z,7.30
2023-03-12T21:18:56.375Z,7.03
2023-03-12T21:21:23.456Z,8.63
2023-03-12T21:23:51.510Z,8.13
2023-03-12T21:26:19.096Z,8.25
2023-03-12T21:28:47.228Z,8.18
2023-03-12T21:31:16.909Z,7.93
2023-03-12T21:33:44.804Z,7.50
2023-03-12T21:36:13.393Z,7.18
2023-03-12T21:38:42.848Z,6.45
2023-03-12T21:41:11.332Z,7.10
2023-03-12T21:43:39.253Z,5.07
2023-03-12T21:46:08.177Z,5.45
2023-03-12T21:48:35.923Z,4.35
2023-03-12T21:51:08.245Z,3.60
2023-03-12T21:53:36.301Z,4.28
2023-03-12T21:56:04.066Z,3.55
2023-03-12T21:58:32.859Z,3.80
2023-03-12T22:01:19.467Z,4.75
2023-03-12T22:03:47.653Z,4.95
2023-03-12T22:06:15.944Z,3.38
2023-03-12T22:08:44.657Z,4.05
2023-03-12T22:11:12.204Z,3.95
2023-03-12T22:13:39.896Z,5.13
2023-03-12T22:16:08.481Z,5.53
2023-03-12T22:18:40.828Z,5.60
2023-03-12T22:21:08.569Z,4.47
2023-03-12T22:23:37.032Z,4.70
2023-03-12T22:26:06.335Z,4.63
2023-03-12T22:28:34.064Z,5.00
2023-03-12T22:31:03.545Z,6.07
2023-03-12T22:33:31.144Z,4.82
2023-03-12T22:35:58.599Z,4.32
2023-03-12T22:38:26.137Z,4.10
2023-03-12T22:40:55.684Z,4.53
2023-03-12T22:43:25.806Z,4.55
2023-03-12T22:45:54.218Z,5.05
2023-03-12T22:48:21.970Z,4.32
2023-03-12T22:50:55.447Z,4.45
2023-03-12T22:53:23.473Z,4.10
2023-03-12T22:56:01.343Z,4.53
2023-03-12T22:58:29.276Z,3.67
2023-03-12T23:01:03.879Z,4.47
2023-03-12T23:03:31.909Z,4.13
2023-03-12T23:05:59.708Z,3.97
2023-03-12T23:08:27.732Z,4.30
2023-03-12T23:10:56.461Z,3.67
2023-03-12T23:13:25.091Z,4.18
2023-03-12T23:15:52.722Z,4.03
2023-03-12T23:18:20.832Z,3.60
2023-03-12T23:20:48.176Z,3.97
2023-03-12T23:23:16.081Z,3.63
2023-03-12T23:25:43.462Z,3.22
2023-03-12T23:28:11.111Z,3.40
2023-03-12T23:30:38.506Z,3.25
2023-03-12T23:33:06.398Z,2.47
2023-03-12T23:35:33.375Z,2.80
2023-03-12T23:38:01.231Z,3.08
2023-03-12T23:40:28.592Z,3.05
2023-03-12T23:42:56.484Z,2.85
2023-03-12T23:45:24.016Z,2.60
2023-03-12T23:47:51.940Z,2.45
2023-03-12T23:50:19.271Z,3.17
2023-03-12T23:52:46.971Z,3.58
2023-03-12T23:55:14.332Z,2.70
2023-03-12T23:57:42.260Z,2.88
